createdAt,value
2019-04-11T00:02:17.611Z,7.63
2019-04-11T00:04:48.515Z,7.37
2019-04-11T00:07:20.417Z,8.15
2019-04-11T00:09:51.242Z,7.60
2019-04-11T00:12:22.229Z,7.87
2019-04-11T00:14:53.728Z,7.77
2019-04-11T00:17:24.419Z,7.58
2019-04-11T00:19:55.816Z,7.60
2019-04-11T00:22:26.402Z,8.00
2019-04-11T00:24:56.907Z,7.92
2019-04-11T00:27:27.431Z,7.35
2019-04-11T00:29:57.943Z,8.10
2019-04-11T00:32:29.554Z,7.15
2019-04-11T00:35:01.518Z,7.40
2019-04-11T00:37:32.785Z,7.37
2019-04-11T00:40:03.893Z,7.67
2019-04-11T00:42:35.263Z,7.08
2019-04-11T00:45:07.590Z,7.10
2019-04-11T00:47:39.663Z,7.20
2019-04-11T00:50:10.866Z,7.10
2019-04-11T00:52:41.369Z,7.80
2019-04-11T00:55:12.018Z,6.58
2019-04-11T00:57:43.234Z,7.60
2019-04-11T01:00:15.174Z,6.72
2019-04-11T01:02:45.774Z,6.75
2019-04-11T01:05:17.213Z,7.00
2019-04-11T01:07:47.821Z,7.25
2019-04-11T01:10:18.380Z,7.20
2019-04-11T01:12:49.873Z,6.95
2019-04-11T01:15:23.703Z,7.35
2019-04-11T01:17:54.572Z,7.67
2019-04-11T01:20:25.063Z,6.80
2019-04-11T01:22:56.419Z,7.03
2019-04-11T01:25:27.073Z,7.27
2019-04-11T01:27:58.459Z,7.17
2019-04-11T01:30:38.969Z,6.70
2019-04-11T01:33:09.472Z,6.10
2019-04-11T01:35:39.940Z,6.65
2019-04-11T01:38:10.484Z,6.35
2019-04-11T01:40:40.877Z,6.12
2019-04-11T01:43:11.457Z,5.90
2019-04-11T01:45:43.341Z,6.53
2019-04-11T01:48:28.016Z,6.55
2019-04-11T01:50:59.090Z,6.30
2019-04-11T01:53:30.961Z,5.47
2019-04-11T01:56:01.677Z,5.40
2019-04-11T01:58:32.993Z,4.72
2019-04-11T02:01:14.511Z,6.05
2019-04-11T02:04:10.130Z,6.50
2019-04-11T02:06:40.599Z,5.40
2019-04-11T02:09:15.881Z,5.72
2019-04-11T02:11:46.458Z,5.87
2019-04-11T02:14:19.497Z,5.58
2019-04-11T02:16:49.628Z,4.53
2019-04-11T02:19:21.390Z,5.30
2019-04-11T02:21:53.771Z,5.03
2019-04-11T02:24:46.333Z,4.90
2019-04-11T02:27:21.146Z,4.85
2019-04-11T02:29:52.948Z,4.80
2019-04-11T02:32:27.034Z,3.62
2019-04-11T02:34:59.349Z,4.30
2019-04-11T02:37:31.515Z,4.30
2019-04-11T02:40:03.199Z,4.50
2019-04-11T02:42:35.129Z,4.20
2019-04-11T02:45:22.809Z,4.45
2019-04-11T02:47:41.580Z,4.30
2019-04-11T02:50:16.097Z,4.80
2019-04-11T02:52:44.458Z,4.20
2019-04-11T02:55:16.930Z,4.33
2019-04-11T02:57:48.325Z,4.22
2019-04-11T03:00:20.590Z,4.60
2019-04-11T03:02:53.116Z,4.22
2019-04-11T03:05:24.549Z,4.20
2019-04-11T03:07:56.451Z,4.40
2019-04-11T03:10:28.908Z,4.75
2019-04-11T03:13:00.860Z,4.10
2019-04-11T03:15:46.645Z,4.58
2019-04-11T03:18:09.223Z,4.37
2019-04-11T03:20:45.695Z,4.20
2019-04-11T03:23:14.361Z,4.60
2019-04-11T03:25:44.712Z,4.87
2019-04-11T03:28:21.375Z,5.17
2019-04-11T03:31:17.942Z,4.65
2019-04-11T03:36:53.959Z,4.45
2019-04-11T03:38:51.145Z,4.90
2019-04-11T03:41:16.167Z,4.28
2019-04-11T03:43:41.941Z,4.55
2019-04-11T03:46:19.947Z,4.58
2019-04-11T03:48:48.327Z,4.10
2019-04-11T03:51:08.827Z,4.53
2019-04-11T03:53:41.038Z,4.70
2019-04-11T03:56:12.686Z,4.47
2019-04-11T03:58:46.189Z,4.40
2019-04-11T04:01:18.397Z,4.47
2019-04-11T04:03:51.098Z,4.00
2019-04-11T04:06:23.159Z,4.80
2019-04-11T04:08:55.610Z,4.75
2019-04-11T04:11:29.887Z,4.70
2019-04-11T04:14:10.483Z,4.70
2019-04-11T04:17:03.815Z,4.90
2019-04-11T04:19:40.981Z,5.30
2019-04-11T04:22:24.746Z,5.37
2019-04-11T04:24:56.060Z,5.83
2019-04-11T04:27:27.988Z,5.85
2019-04-11T04:30:02.193Z,5.77
2019-04-11T04:32:32.385Z,5.62
2019-04-11T04:35:04.996Z,5.58
2019-04-11T04:37:38.631Z,6.10
2019-04-11T04:40:29.602Z,6.28
2019-04-11T04:42:47.774Z,6.33
2019-04-11T04:45:16.334Z,6.50
2019-04-11T04:47:53.864Z,5.87
2019-04-11T04:50:20.059Z,5.97
2019-04-11T04:52:51.557Z,6.22
2019-04-11T04:55:23.550Z,6.50
2019-04-11T04:57:55.432Z,6.75
2019-04-11T05:00:28.030Z,6.25
2019-04-11T05:02:59.932Z,7.22
2019-04-11T05:05:30.967Z,6.60
2019-04-11T05:08:02.874Z,6.70
2019-04-11T05:10:33.594Z,5.72
2019-04-11T05:13:05.560Z,6.03
2019-04-11T05:15:36.591Z,6.60
2019-04-11T05:18:08.920Z,6.78
2019-04-11T05:20:39.359Z,6.75
2019-04-11T05:23:09.815Z,6.83
2019-04-11T05:25:40.462Z,6.40
2019-04-11T05:28:12.028Z,6.67
2019-04-11T05:30:42.841Z,6.15
2019-04-11T05:33:13.625Z,6.50
2019-04-11T05:35:44.142Z,6.50
2019-04-11T05:38:14.696Z,5.85
2019-04-11T05:40:46.147Z,5.47
2019-04-11T05:43:16.689Z,5.70
2019-04-11T05:45:50.521Z,5.55
2019-04-11T05:48:35.176Z,6.40
2019-04-11T05:51:06.623Z,5.67
2019-04-11T05:53:38.657Z,5.95
2019-04-11T05:59:09.448Z,5.40
2019-04-11T06:01:45.112Z,5.42
2019-04-11T06:04:27.209Z,5.83
2019-04-11T06:07:08.415Z,5.45
2019-04-11T06:09:41.652Z,5.70
2019-04-11T06:12:27.620Z,5.90
2019-04-11T06:15:08.353Z,4.70
2019-04-11T06:17:40.747Z,5.33
2019-04-11T06:20:29.919Z,5.10
2019-04-11T06:23:19.152Z,6.53
2019-04-11T06:26:14.698Z,6.53
2019-04-11T06:28:45.258Z,5.78
2019-04-11T06:31:33.872Z,5.70
2019-04-11T06:34:07.213Z,6.00
2019-04-11T06:37:15.032Z,6.10
2019-04-11T06:39:59.750Z,6.42
2019-04-11T06:42:45.619Z,7.62
2019-04-11T06:45:37.836Z,6.78
2019-04-11T06:48:30.127Z,6.28
2019-04-11T06:51:08.188Z,5.85
2019-04-11T06:53:42.230Z,5.70
2019-04-11T06:56:18.982Z,6.00
2019-04-11T06:58:56.737Z,6.22
2019-04-11T07:01:30.048Z,6.70
2019-04-11T07:04:07.160Z,6.42
2019-04-11T07:06:39.997Z,6.00
2019-04-11T07:09:29.038Z,5.70
2019-04-11T07:12:04.102Z,6.60
2019-04-11T07:14:40.259Z,6.20
2019-04-11T07:17:29.592Z,6.60
2019-04-11T07:20:29.239Z,6.20
2019-04-11T07:23:17.920Z,5.42
2019-04-11T07:26:02.861Z,5.90
2019-04-11T07:29:04.572Z,5.67
2019-04-11T07:31:57.394Z,5.92
2019-04-11T07:35:00.035Z,6.03
2019-04-11T07:37:49.155Z,6.50
2019-04-11T07:40:39.213Z,5.97
2019-04-11T07:43:29.100Z,5.73
2019-04-11T07:46:25.534Z,6.33
2019-04-11T07:49:10.051Z,5.85
2019-04-11T07:51:45.044Z,5.95
2019-04-11T07:54:20.462Z,6.33
2019-04-11T07:57:19.324Z,5.90
2019-04-11T08:00:36.592Z,6.45
2019-04-11T08:03:23.566Z,6.78
2019-04-11T08:06:20.022Z,6.85
2019-04-11T08:09:18.761Z,6.20
2019-04-11T08:12:00.321Z,6.30
2019-04-11T08:14:50.979Z,6.50
2019-04-11T08:17:38.507Z,6.20
2019-04-11T08:20:42.033Z,6.03
2019-04-11T08:23:13.713Z,5.53
2019-04-11T08:26:12.069Z,5.65
2019-04-11T08:28:44.037Z,5.28
2019-04-11T08:31:36.389Z,5.50
2019-04-11T08:34:08.077Z,5.40
2019-04-11T08:36:57.509Z,5.20
2019-04-11T08:39:33.215Z,4.40
2019-04-11T08:42:21.373Z,4.60
2019-04-11T08:44:52.278Z,3.80
2019-04-11T08:47:22.813Z,3.95
2019-04-11T08:49:56.977Z,3.92
2019-04-11T08:52:42.741Z,3.92
2019-04-11T08:55:49.758Z,3.53
2019-04-11T08:58:20.436Z,2.65
2019-04-11T09:01:00.686Z,2.90
2019-04-11T09:04:07.311Z,3.27
2019-04-11T09:06:38.878Z,2.70
2019-04-11T09:09:27.474Z,3.15
2019-04-11T09:12:04.448Z,3.10
2019-04-11T09:14:56.920Z,3.08
2019-04-11T09:17:34.466Z,2.30
2019-04-11T09:20:36.196Z,2.05
2019-04-11T09:23:11.726Z,2.87
2019-04-11T09:26:01.504Z,2.60
2019-04-11T09:28:38.162Z,2.40
2019-04-11T09:31:31.657Z,3.10
2019-04-11T09:34:28.032Z,2.80
2019-04-11T09:37:15.529Z,3.00
2019-04-11T09:40:23.939Z,3.03
2019-04-11T09:43:17.767Z,2.90
2019-04-11T09:46:16.614Z,3.02
2019-04-11T09:49:13.515Z,3.22
2019-04-11T09:51:58.429Z,3.10
2019-04-11T09:54:42.061Z,2.92
2019-04-11T09:57:18.553Z,2.80
2019-04-11T10:00:26.864Z,2.72
2019-04-11T10:03:03.787Z,2.90
2019-04-11T10:05:48.639Z,2.70
2019-04-11T10:08:35.029Z,3.22
2019-04-11T10:11:24.139Z,2.55
2019-04-11T10:14:01.718Z,2.80
2019-04-11T10:16:50.591Z,2.87
2019-04-11T10:19:34.303Z,2.35
2019-04-11T10:22:13.225Z,3.08
2019-04-11T10:25:03.146Z,2.43
2019-04-11T10:27:53.092Z,2.60
2019-04-11T10:30:42.001Z,2.60
2019-04-11T10:33:26.675Z,2.65
2019-04-11T10:36:12.550Z,2.93
2019-04-11T10:38:43.127Z,2.57
2019-04-11T10:41:32.568Z,2.40
2019-04-11T10:44:03.735Z,2.50
2019-04-11T10:46:51.516Z,2.25
2019-04-11T10:49:42.088Z,2.27
2019-04-11T10:52:28.670Z,2.27
2019-04-11T10:55:18.041Z,2.10
2019-04-11T10:58:10.860Z,2.02
2019-04-11T11:00:59.601Z,2.30
2019-04-11T11:03:39.029Z,2.40
2019-04-11T11:06:09.487Z,2.00
2019-04-11T11:08:50.023Z,2.00
2019-04-11T11:11:28.396Z,2.12
2019-04-11T11:14:24.834Z,2.00
2019-04-11T11:17:17.531Z,2.10
2019-04-11T11:20:27.820Z,2.83
2019-04-11T11:23:16.163Z,2.37
2019-04-11T11:25:52.893Z,2.80
2019-04-11T11:28:25.892Z,2.75
2019-04-11T11:31:05.927Z,2.35
2019-04-11T11:33:36.495Z,2.62
2019-04-11T11:36:25.721Z,2.30
2019-04-11T11:39:19.352Z,3.00
2019-04-11T11:42:08.287Z,2.50
2019-04-11T11:44:53.017Z,2.60
2019-04-11T11:47:41.994Z,2.15
2019-04-11T11:50:18.750Z,2.77
2019-04-11T11:53:22.691Z,2.30
2019-04-11T11:55:53.997Z,2.40
2019-04-11T11:58:59.931Z,2.10
2019-04-11T12:01:31.575Z,2.30
2019-04-11T12:04:23.855Z,2.75
2019-04-11T12:06:58.888Z,2.77
2019-04-11T12:09:46.729Z,2.50
2019-04-11T12:12:21.935Z,2.30
2019-04-11T12:15:14.197Z,1.90
2019-04-11T12:18:01.858Z,1.92
2019-04-11T12:20:39.467Z,2.30
2019-04-11T12:23:24.413Z,2.40
2019-04-11T12:25:55.740Z,2.50
2019-04-11T12:28:57.587Z,2.42
2019-04-11T12:31:28.746Z,2.08
2019-04-11T12:34:19.140Z,2.02
2019-04-11T12:36:53.330Z,2.40
2019-04-11T12:39:42.551Z,2.30
2019-04-11T12:42:22.345Z,2.40
2019-04-11T12:45:27.275Z,2.25
2019-04-11T12:47:59.895Z,2.07
2019-04-11T12:50:48.316Z,2.10
2019-04-11T12:53:20.621Z,1.98
2019-04-11T12:56:15.877Z,2.00
2019-04-11T12:58:52.373Z,2.10
2019-04-11T13:01:44.814Z,2.27
2019-04-11T13:04:30.029Z,2.50
2019-04-11T13:07:22.506Z,2.00
2019-04-11T13:09:58.949Z,2.60
2019-04-11T13:12:54.497Z,2.30
2019-04-11T13:15:32.869Z,2.08
2019-04-11T13:18:40.404Z,2.90
2019-04-11T13:21:14.438Z,2.55
2019-04-11T13:24:09.681Z,2.20
2019-04-11T13:27:05.847Z,2.30
2019-04-11T13:30:04.716Z,2.90
2019-04-11T13:32:50.814Z,2.05
2019-04-11T13:35:28.247Z,2.22
2019-04-11T13:38:13.417Z,2.00
2019-04-11T13:41:02.883Z,2.35
2019-04-11T13:43:45.421Z,2.42
2019-04-11T13:46:47.039Z,2.17
2019-04-11T13:49:35.620Z,2.00
2019-04-11T13:52:28.388Z,2.50
2019-04-11T13:55:25.435Z,2.58
2019-04-11T13:58:14.864Z,2.52
2019-04-11T14:00:47.571Z,2.50
2019-04-11T14:03:45.351Z,2.15
2019-04-11T14:06:33.474Z,2.52
2019-04-11T14:09:24.403Z,2.50
2019-04-11T14:11:59.639Z,3.00
2019-04-11T14:14:38.112Z,3.35
2019-04-11T14:17:36.815Z,2.42
2019-04-11T14:20:34.706Z,2.70
2019-04-11T14:23:28.467Z,2.30
2019-04-11T14:26:17.875Z,2.62
2019-04-11T14:28:52.252Z,2.70
2019-04-11T14:31:48.264Z,2.37
2019-04-11T14:34:50.010Z,2.40
2019-04-11T14:37:38.535Z,2.58
2019-04-11T14:40:14.983Z,2.40
2019-04-11T14:43:13.675Z,2.40
2019-04-11T14:46:22.953Z,2.60
2019-04-11T14:48:56.387Z,2.65
2019-04-11T14:51:46.307Z,2.60
2019-04-11T14:54:19.859Z,2.50
2019-04-11T14:56:59.615Z,2.17
2019-04-11T14:59:35.241Z,2.85
2019-04-11T15:02:11.297Z,2.60
2019-04-11T15:04:56.286Z,2.43
2019-04-11T15:07:27.230Z,2.30
2019-04-11T15:10:19.663Z,2.72
2019-04-11T15:12:50.188Z,2.58
2019-04-11T15:15:30.658Z,2.10
2019-04-11T15:18:03.254Z,2.35
2019-04-11T15:21:01.752Z,2.45
2019-04-11T15:23:37.555Z,2.02
2019-04-11T15:26:26.489Z,2.10
2019-04-11T15:29:17.598Z,2.33
2019-04-11T15:32:13.139Z,2.33
2019-04-11T15:34:49.021Z,2.27
2019-04-11T15:37:47.310Z,2.30
2019-04-11T15:40:27.091Z,2.10
2019-04-11T15:43:25.435Z,2.20
2019-04-11T15:46:08.359Z,2.10
2019-04-11T15:49:00.779Z,2.20
2019-04-11T15:51:36.976Z,2.00
2019-04-11T15:54:26.576Z,2.40
2019-04-11T15:57:01.118Z,2.00
2019-04-11T15:59:56.605Z,3.60
2019-04-11T16:03:01.183Z,2.20
2019-04-11T16:06:02.274Z,1.82
2019-04-11T16:08:39.451Z,1.90
2019-04-11T16:11:19.580Z,2.50
2019-04-11T16:14:10.934Z,2.12
2019-04-11T16:17:07.256Z,2.50
2019-04-11T16:19:56.834Z,2.47
2019-04-11T16:22:45.213Z,2.40
2019-04-11T16:25:18.174Z,2.42
2019-04-11T16:28:08.129Z,2.67
2019-04-11T16:30:44.856Z,2.20
2019-04-11T16:33:40.733Z,2.13
2019-04-11T16:36:29.138Z,2.40
2019-04-11T16:39:19.931Z,2.00
2019-04-11T16:41:56.486Z,2.58
2019-04-11T16:44:40.394Z,2.40
2019-04-11T16:47:29.950Z,2.33
2019-04-11T16:50:00.625Z,2.37
2019-04-11T16:52:31.411Z,2.60
2019-04-11T16:55:02.024Z,2.60
2019-04-11T16:57:32.507Z,2.20
2019-04-11T17:00:03.693Z,2.02
2019-04-11T17:02:34.297Z,2.08
2019-04-11T17:05:08.787Z,2.40
2019-04-11T17:07:57.268Z,2.50
2019-04-11T17:10:45.444Z,2.50
2019-04-11T17:13:16.033Z,2.92
2019-04-11T17:15:46.568Z,2.77
2019-04-11T17:18:18.984Z,2.87
2019-04-11T17:20:49.328Z,3.17
2019-04-11T17:23:19.823Z,3.22
2019-04-11T17:25:53.083Z,3.25
2019-04-11T17:28:23.724Z,3.10
2019-04-11T17:30:55.782Z,3.12
2019-04-11T17:33:28.530Z,3.30
2019-04-11T17:36:01.805Z,2.98
2019-04-11T17:38:31.503Z,3.40
2019-04-11T17:41:02.110Z,3.42
2019-04-11T17:43:32.669Z,2.83
2019-04-11T17:46:03.299Z,3.17
2019-04-11T17:48:33.825Z,3.05
2019-04-11T17:51:05.647Z,3.30
2019-04-11T17:53:36.355Z,3.60
2019-04-11T17:56:06.887Z,3.50
2019-04-11T17:58:37.502Z,3.65
2019-04-11T18:01:08.892Z,3.60
2019-04-11T18:03:41.824Z,4.03
2019-04-11T18:06:12.235Z,3.45
2019-04-11T18:08:46.747Z,3.50
2019-04-11T18:11:17.392Z,3.20
2019-04-11T18:13:55.424Z,3.30
2019-04-11T18:16:26.239Z,3.30
2019-04-11T18:18:56.887Z,3.10
2019-04-11T18:21:29.878Z,3.25
2019-04-11T18:24:00.617Z,2.90
2019-04-11T18:26:31.115Z,3.10
2019-04-11T18:29:01.743Z,3.20
2019-04-11T18:31:32.331Z,2.77
2019-04-11T18:34:02.862Z,2.77
2019-04-11T18:36:33.463Z,2.67
2019-04-11T18:39:06.000Z,3.00
2019-04-11T18:41:36.853Z,3.27
2019-04-11T18:44:07.614Z,2.83
2019-04-11T18:46:39.441Z,3.02
2019-04-11T18:49:10.048Z,3.58
2019-04-11T18:51:40.597Z,3.27
2019-04-11T18:54:11.211Z,3.50
2019-04-11T18:59:34.007Z,3.02
2019-04-11T19:02:05.173Z,3.40
2019-04-11T19:04:35.735Z,3.90
2019-04-11T19:07:06.652Z,3.35
2019-04-11T19:09:37.402Z,3.47
2019-04-11T19:12:09.219Z,3.40
2019-04-11T19:14:40.003Z,3.90
2019-04-11T19:17:10.549Z,3.10
2019-04-11T19:19:41.177Z,4.10
2019-04-11T19:22:11.762Z,3.50
2019-04-11T19:24:42.487Z,3.90
2019-04-11T19:27:13.997Z,3.95
2019-04-11T19:29:45.451Z,3.20
2019-04-11T19:32:16.331Z,4.42
2019-04-11T19:34:47.148Z,3.85
2019-04-11T19:37:17.757Z,3.90
2019-04-11T19:39:48.391Z,3.35
2019-04-11T19:42:19.813Z,3.95
2019-04-11T19:44:50.549Z,3.98
2019-04-11T19:47:21.713Z,3.90
2019-04-11T19:49:52.883Z,4.03
2019-04-11T19:52:23.422Z,3.33
2019-04-11T19:54:55.659Z,3.65
2019-04-11T19:57:26.213Z,3.55
2019-04-11T19:59:56.703Z,3.70
2019-04-11T20:02:27.301Z,3.70
2019-04-11T20:04:58.430Z,3.67
2019-04-11T20:07:29.223Z,3.90
2019-04-11T20:10:00.889Z,3.80
2019-04-11T20:12:32.109Z,3.70
2019-04-11T20:15:04.656Z,3.60
2019-04-11T20:17:44.391Z,3.60
2019-04-11T20:20:08.025Z,3.80
2019-04-11T20:22:39.807Z,3.77
2019-04-11T20:25:10.878Z,3.70
2019-04-11T20:27:41.387Z,3.87
2019-04-11T20:30:12.627Z,3.80
2019-04-11T20:32:43.197Z,4.30
2019-04-11T20:35:13.779Z,3.75
2019-04-11T20:37:45.247Z,3.80
2019-04-11T20:40:18.161Z,3.60
2019-04-11T20:42:48.084Z,4.50
2019-04-11T20:45:19.155Z,4.12
2019-04-11T20:47:49.689Z,3.65
2019-04-11T20:50:20.137Z,3.65
2019-04-11T20:52:50.846Z,4.20
2019-04-11T20:55:21.302Z,3.92
2019-04-11T20:57:51.767Z,3.60
2019-04-11T21:00:22.763Z,4.28
2019-04-11T21:02:53.343Z,4.30
2019-04-11T21:05:23.958Z,4.00
2019-04-11T21:07:54.365Z,3.77
2019-04-11T21:10:24.881Z,3.70
2019-04-11T21:12:55.410Z,3.72
2019-04-11T21:15:25.960Z,4.00
2019-04-11T21:17:56.749Z,4.35
2019-04-11T21:20:27.419Z,4.50
2019-04-11T21:22:57.949Z,3.50
2019-04-11T21:25:29.140Z,4.15
2019-04-11T21:28:00.035Z,3.70
2019-04-11T21:30:31.232Z,4.00
2019-04-11T21:33:03.770Z,4.10
2019-04-11T21:35:34.088Z,3.90
2019-04-11T21:38:04.607Z,4.13
2019-04-11T21:40:35.979Z,4.00
2019-04-11T21:43:07.325Z,4.00
2019-04-11T21:45:37.802Z,4.00
2019-04-11T21:48:08.428Z,3.83
2019-04-11T21:50:40.578Z,4.25
2019-04-11T21:53:13.837Z,3.70
2019-04-11T21:55:47.186Z,4.20
2019-04-11T21:58:19.294Z,3.87
2019-04-11T22:00:54.361Z,4.05
2019-04-11T22:03:24.837Z,4.03
2019-04-11T22:05:55.338Z,4.43
2019-04-11T22:08:25.875Z,4.00
2019-04-11T22:10:56.344Z,4.80
2019-04-11T22:13:26.740Z,4.60
2019-04-11T22:15:57.247Z,5.00
2019-04-11T22:18:27.929Z,4.53
2019-04-11T22:20:58.408Z,4.00
2019-04-11T22:23:28.918Z,4.12
2019-04-11T22:25:59.384Z,4.35
2019-04-11T22:28:29.931Z,4.20
2019-04-11T22:31:00.526Z,4.70
2019-04-11T22:33:38.476Z,4.30
2019-04-11T22:36:10.008Z,4.17
2019-04-11T22:38:40.481Z,4.35
2019-04-11T22:41:10.960Z,4.95
2019-04-11T22:43:41.533Z,4.40
2019-04-11T22:46:20.244Z,4.90
2019-04-11T22:48:44.254Z,4.17
2019-04-11T22:51:14.843Z,4.47
2019-04-11T22:53:45.358Z,4.80
2019-04-11T22:56:15.898Z,4.70
2019-04-11T22:58:46.442Z,5.20
2019-04-11T23:01:17.227Z,4.92
2019-04-11T23:03:51.730Z,4.87
2019-04-11T23:06:22.252Z,4.40
2019-04-11T23:08:52.649Z,4.80
2019-04-11T23:11:23.299Z,4.60
2019-04-11T23:13:53.818Z,5.10
2019-04-11T23:16:24.423Z,4.90
2019-04-11T23:18:54.982Z,5.30
2019-04-11T23:21:25.488Z,4.90
2019-04-11T23:23:56.066Z,5.80
2019-04-11T23:26:26.559Z,5.10
2019-04-11T23:28:57.108Z,5.90
2019-04-11T23:31:27.650Z,5.45
2019-04-11T23:33:58.219Z,6.05
2019-04-11T23:36:28.729Z,5.50
2019-04-11T23:38:59.279Z,5.90
2019-04-11T23:41:29.881Z,5.37
2019-04-11T23:44:00.355Z,5.28
2019-04-11T23:46:30.851Z,5.30
2019-04-11T23:49:01.427Z,5.58
2019-04-11T23:51:32.024Z,5.30
2019-04-11T23:54:02.557Z,5.33
2019-04-11T23:56:33.035Z,5.30
2019-04-11T23:59:03.536Z,5.57
